createdAt,value
2016-04-28T00:00:47.403Z,0
2016-04-28T00:01:47.405Z,0
2016-04-28T00:02:47.423Z,0
2016-04-28T00:03:47.395Z,0
2016-04-28T00:04:47.398Z,0
2016-04-28T00:05:47.400Z,0
2016-04-28T00:06:47.402Z,0
2016-04-28T00:07:47.406Z,0
2016-04-28T00:08:47.408Z,0
2016-04-28T00:09:47.395Z,0
2016-04-28T00:10:47.273Z,0
2016-04-28T00:11:49.541Z,0
2016-04-28T00:12:47.404Z,0
2016-04-28T00:13:47.391Z,0
2016-04-28T00:14:47.393Z,0
2016-04-28T00:15:47.411Z,0
2016-04-28T00:16:47.430Z,0
2016-04-28T00:17:47.401Z,0
2016-04-28T00:18:47.389Z,0
2016-04-28T00:19:47.391Z,0
2016-04-28T00:20:47.394Z,0
2016-04-28T00:21:47.381Z,0
2016-04-28T00:22:47.384Z,0
2016-04-28T00:23:47.386Z,0
2016-04-28T00:24:47.389Z,0
2016-04-28T00:25:48.564Z,0
2016-04-28T00:26:47.442Z,0
2016-04-28T00:27:47.397Z,0
2016-04-28T00:28:47.383Z,0
2016-04-28T00:29:47.403Z,0
2016-04-28T00:30:47.389Z,0
2016-04-28T00:31:47.377Z,0
2016-04-28T00:32:47.410Z,0
2016-04-28T00:33:47.257Z,0
2016-04-28T00:34:47.400Z,0
2016-04-28T00:35:47.387Z,0
2016-04-28T00:36:47.405Z,0
2016-04-28T00:37:47.377Z,0
2016-04-28T00:38:47.396Z,0
2016-04-28T00:39:47.382Z,0
2016-04-28T00:40:47.869Z,0
2016-04-28T00:41:47.403Z,0
2016-04-28T00:42:47.391Z,0
2016-04-28T00:43:47.409Z,0
2016-04-28T00:44:47.365Z,0
2016-04-28T00:45:47.382Z,0
2016-04-28T00:46:47.401Z,0
2016-04-28T00:47:47.388Z,0
2016-04-28T00:48:47.406Z,0
2016-04-28T00:49:47.378Z,0
2016-04-28T00:50:47.365Z,0
2016-04-28T00:51:47.399Z,0
2016-04-28T00:52:47.386Z,0
2016-04-28T00:53:47.373Z,0
2016-04-28T00:54:47.376Z,0
2016-04-28T00:55:48.769Z,0
2016-04-28T00:56:49.616Z,0
2016-04-28T00:57:47.369Z,0
2016-04-28T00:58:47.402Z,0
2016-04-28T00:59:47.389Z,0
2016-04-28T01:00:47.377Z,0
2016-04-28T01:01:47.379Z,0
2016-04-28T01:02:47.382Z,0
2016-04-28T01:03:47.369Z,0
2016-04-28T01:04:47.356Z,0
2016-04-28T01:05:47.358Z,0
2016-04-28T01:06:47.377Z,0
2016-04-28T01:07:47.379Z,0
2016-04-28T01:08:47.366Z,0
2016-04-28T01:09:47.369Z,0
2016-04-28T01:10:47.449Z,0
2016-04-28T01:11:47.249Z,0
2016-04-28T01:12:47.377Z,0
2016-04-28T01:13:47.365Z,0
2016-04-28T01:14:47.367Z,0
2016-04-28T01:15:47.385Z,0
2016-04-28T01:16:47.357Z,0
2016-04-28T01:17:47.360Z,0
2016-04-28T01:18:47.346Z,0
2016-04-28T01:19:47.365Z,0
2016-04-28T01:20:47.351Z,0
2016-04-28T01:21:47.370Z,0
2016-04-28T01:22:47.357Z,0
2016-04-28T01:23:47.375Z,0
2016-04-28T01:24:47.362Z,0
2016-04-28T01:25:47.365Z,0
2016-04-28T01:26:47.353Z,0
2016-04-28T01:27:47.339Z,0
2016-04-28T01:28:47.373Z,0
2016-04-28T01:29:47.361Z,0
2016-04-28T01:30:47.364Z,0
2016-04-28T01:31:47.366Z,0
2016-04-28T01:32:47.383Z,0
2016-04-28T01:33:47.386Z,0
2016-04-28T01:34:47.343Z,0
2016-04-28T01:35:47.361Z,0
2016-04-28T01:36:47.363Z,0
2016-04-28T01:37:47.352Z,0
2016-04-28T01:38:47.354Z,0
2016-04-28T01:39:47.341Z,0
2016-04-28T01:40:47.327Z,0
2016-04-28T01:41:50.455Z,0
2016-04-28T01:42:47.349Z,0
2016-04-28T01:43:47.336Z,0
2016-04-28T01:44:47.323Z,0
2016-04-28T01:45:47.340Z,0
2016-04-28T01:46:47.344Z,0
2016-04-28T01:47:47.346Z,0
2016-04-28T01:48:47.334Z,0
2016-04-28T01:49:47.351Z,0
2016-04-28T01:50:47.340Z,0
2016-04-28T01:51:47.342Z,0
2016-04-28T01:52:47.328Z,0
2016-04-28T01:53:47.348Z,0
2016-04-28T01:54:47.350Z,0
2016-04-28T01:55:47.759Z,0
2016-04-28T01:56:49.605Z,0
2016-04-28T01:57:47.342Z,0
2016-04-28T01:58:47.344Z,0
2016-04-28T01:59:47.332Z,0
2016-04-28T02:00:47.350Z,0
2016-04-28T02:01:47.336Z,0
2016-04-28T02:02:47.325Z,0
2016-04-28T02:03:47.342Z,0
2016-04-28T02:04:47.189Z,0
2016-04-28T02:05:47.316Z,0
2016-04-28T02:06:47.319Z,0
2016-04-28T02:07:47.322Z,0
2016-04-28T02:08:47.325Z,0
2016-04-28T02:09:47.327Z,0
2016-04-28T02:10:47.252Z,0
2016-04-28T02:11:49.693Z,0
2016-04-28T02:12:47.320Z,0
2016-04-28T02:13:47.323Z,0
2016-04-28T02:14:47.325Z,0
2016-04-28T02:15:47.344Z,0
2016-04-28T02:16:47.315Z,0
2016-04-28T02:17:47.162Z,0
2016-04-28T02:18:47.305Z,0
2016-04-28T02:19:47.323Z,0
2016-04-28T02:20:47.467Z,0
2016-04-28T02:21:47.312Z,0
2016-04-28T02:22:47.181Z,0
2016-04-28T02:23:47.324Z,0
2016-04-28T02:24:47.343Z,0
2016-04-28T02:25:47.345Z,0
2016-04-28T02:26:47.285Z,0
2016-04-28T02:27:47.334Z,0
2016-04-28T02:28:47.307Z,0
2016-04-28T02:29:47.325Z,0
2016-04-28T02:30:47.328Z,0
2016-04-28T02:31:47.314Z,0
2016-04-28T02:32:47.301Z,0
2016-04-28T02:33:47.304Z,0
2016-04-28T02:34:47.322Z,0
2016-04-28T02:35:47.310Z,0
2016-04-28T02:36:47.297Z,0
2016-04-28T02:37:47.315Z,0
2016-04-28T02:38:47.302Z,0
2016-04-28T02:39:47.335Z,0
2016-04-28T02:40:48.261Z,0
2016-04-28T02:41:47.670Z,0
2016-04-28T02:42:47.297Z,0
2016-04-28T02:43:47.315Z,0
2016-04-28T02:44:47.303Z,0
2016-04-28T02:45:47.289Z,0
2016-04-28T02:46:47.308Z,0
2016-04-28T02:47:47.310Z,0
2016-04-28T02:48:47.298Z,0
2016-04-28T02:49:47.300Z,0
2016-04-28T02:50:47.302Z,0
2016-04-28T02:51:47.305Z,0
2016-04-28T02:52:47.307Z,0
2016-04-28T02:53:47.296Z,0
2016-04-28T02:54:47.282Z,0
2016-04-28T02:55:47.285Z,0
2016-04-28T02:56:47.960Z,0
2016-04-28T02:57:47.290Z,0
2016-04-28T02:58:47.293Z,0
2016-04-28T02:59:47.280Z,0
2016-04-28T03:00:47.127Z,0
2016-04-28T03:01:47.286Z,0
2016-04-28T03:02:47.289Z,0
2016-04-28T03:03:47.275Z,0
2016-04-28T03:04:47.294Z,0
2016-04-28T03:05:47.281Z,0
2016-04-28T03:06:47.283Z,0
2016-04-28T03:07:47.270Z,0
2016-04-28T03:08:47.273Z,0
2016-04-28T03:09:47.276Z,0
2016-04-28T03:10:47.278Z,0
2016-04-28T03:11:47.406Z,0
2016-04-28T03:12:47.269Z,0
2016-04-28T03:13:47.286Z,0
2016-04-28T03:14:47.289Z,0
2016-04-28T03:15:47.292Z,0
2016-04-28T03:16:47.263Z,0
2016-04-28T03:17:47.266Z,0
2016-04-28T03:18:47.269Z,0
2016-04-28T03:19:47.271Z,0
2016-04-28T03:20:47.274Z,0
2016-04-28T03:21:47.277Z,0
2016-04-28T03:22:47.280Z,0
2016-04-28T03:23:47.282Z,0
2016-04-28T03:24:47.269Z,0
2016-04-28T03:25:47.116Z,0
2016-04-28T03:26:47.931Z,0
2016-04-28T03:27:47.262Z,0
2016-04-28T03:28:47.295Z,0
2016-04-28T03:29:47.283Z,0
2016-04-28T03:30:47.254Z,0
2016-04-28T03:31:47.273Z,0
2016-04-28T03:32:47.259Z,0
2016-04-28T03:33:47.247Z,0
2016-04-28T03:34:47.265Z,0
2016-04-28T03:35:47.267Z,0
2016-04-28T03:36:47.270Z,0
2016-04-28T03:37:47.258Z,0
2016-04-28T03:38:47.261Z,0
2016-04-28T03:39:47.263Z,0
2016-04-28T03:40:47.265Z,0
2016-04-28T03:41:47.425Z,0
2016-04-28T03:42:47.271Z,0
2016-04-28T03:43:47.258Z,0
2016-04-28T03:44:47.260Z,0
2016-04-28T03:45:47.248Z,0
2016-04-28T03:46:47.250Z,0
2016-04-28T03:47:47.252Z,0
2016-04-28T03:48:47.256Z,0
2016-04-28T03:49:47.258Z,0
2016-04-28T03:50:47.246Z,0
2016-04-28T03:51:47.232Z,0
2016-04-28T03:52:47.251Z,0
2016-04-28T03:53:47.254Z,0
2016-04-28T03:54:47.256Z,0
2016-04-28T03:55:47.243Z,0
2016-04-28T03:56:48.184Z,0
2016-04-28T03:57:47.233Z,0
2016-04-28T03:58:47.251Z,0
2016-04-28T03:59:47.254Z,0
2016-04-28T04:00:47.241Z,0
2016-04-28T04:01:47.260Z,0
2016-04-28T04:02:47.246Z,0
2016-04-28T04:03:47.249Z,0
2016-04-28T04:04:47.081Z,0
2016-04-28T04:05:47.254Z,0
2016-04-28T04:06:47.242Z,0
2016-04-28T04:07:47.244Z,0
2016-04-28T04:08:46.512Z,0
2016-04-28T04:09:47.250Z,0
2016-04-28T04:10:47.253Z,0
2016-04-28T04:11:49.364Z,5
2016-04-28T04:12:47.086Z,5
2016-04-28T04:13:47.230Z,5
2016-04-28T04:14:47.232Z,5
2016-04-28T04:15:47.235Z,5
2016-04-28T04:16:47.222Z,5
2016-04-28T04:17:47.225Z,5
2016-04-28T04:18:47.227Z,5
2016-04-28T04:19:47.213Z,5
2016-04-28T04:20:47.233Z,10
2016-04-28T04:21:47.235Z,10
2016-04-28T04:22:47.222Z,10
2016-04-28T04:23:47.224Z,10
2016-04-28T04:24:47.228Z,10
2016-04-28T04:25:47.230Z,10
2016-04-28T04:26:47.390Z,15
2016-04-28T04:27:47.220Z,15
2016-04-28T04:28:47.207Z,15
2016-04-28T04:29:47.210Z,15
2016-04-28T04:30:47.212Z,15
2016-04-28T04:31:47.215Z,20
2016-04-28T04:32:47.218Z,20
2016-04-28T04:33:47.236Z,20
2016-04-28T04:34:47.207Z,20
2016-04-28T04:35:47.209Z,25
2016-04-28T04:36:47.229Z,25
2016-04-28T04:37:47.215Z,25
2016-04-28T04:38:47.218Z,25
2016-04-28T04:39:47.206Z,30
2016-04-28T04:40:47.208Z,30
2016-04-28T04:41:47.211Z,30
2016-04-28T04:42:47.228Z,35
2016-04-28T04:43:47.200Z,35
2016-04-28T04:44:47.188Z,40
2016-04-28T04:45:47.222Z,40
2016-04-28T04:46:47.208Z,40
2016-04-28T04:47:47.211Z,40
2016-04-28T04:48:47.199Z,40
2016-04-28T04:49:47.201Z,45
2016-04-28T04:50:47.204Z,50
2016-04-28T04:51:47.222Z,50
2016-04-28T04:52:47.194Z,65
2016-04-28T04:53:47.196Z,65
2016-04-28T04:54:47.199Z,70
2016-04-28T04:55:47.202Z,65
2016-04-28T04:56:47.766Z,65
2016-04-28T04:57:47.207Z,70
2016-04-28T04:58:47.193Z,100
2016-04-28T04:59:47.197Z,150
2016-04-28T05:00:47.199Z,180
2016-04-28T05:01:47.171Z,195
2016-04-28T05:02:47.189Z,200
2016-04-28T05:03:47.192Z,185
2016-04-28T05:04:47.210Z,135
2016-04-28T05:05:47.212Z,185
2016-04-28T05:06:47.200Z,235
2016-04-28T05:07:47.187Z,230
2016-04-28T05:08:47.206Z,240
2016-04-28T05:09:47.208Z,260
2016-04-28T05:10:47.210Z,275
2016-04-28T05:11:47.963Z,275
2016-04-28T05:12:47.185Z,270
2016-04-28T05:13:47.187Z,270
2016-04-28T05:14:47.033Z,280
2016-04-28T05:15:47.209Z,295
2016-04-28T05:16:47.180Z,305
2016-04-28T05:17:47.198Z,310
2016-04-28T05:18:47.200Z,305
2016-04-28T05:19:47.204Z,320
2016-04-28T05:20:47.190Z,315
2016-04-28T05:21:47.194Z,325
2016-04-28T05:22:47.196Z,330
2016-04-28T05:23:47.213Z,330
2016-04-28T05:24:47.201Z,340
2016-04-28T05:25:47.189Z,355
2016-04-28T05:26:47.754Z,360
2016-04-28T05:27:47.209Z,355
2016-04-28T05:28:47.213Z,355
2016-04-28T05:29:47.199Z,365
2016-04-28T05:30:47.202Z,380
2016-04-28T05:31:47.220Z,390
2016-04-28T05:32:47.224Z,400
2016-04-28T05:33:47.225Z,400
2016-04-28T05:34:47.213Z,400
2016-04-28T05:35:47.215Z,410
2016-04-28T05:36:47.248Z,420
2016-04-28T05:37:47.236Z,415
2016-04-28T05:38:47.240Z,430
2016-04-28T05:39:47.242Z,435
2016-04-28T05:40:47.228Z,470
2016-04-28T05:41:49.700Z,465
2016-04-28T05:42:47.250Z,440
2016-04-28T05:43:47.253Z,445
2016-04-28T05:44:47.256Z,480
2016-04-28T05:45:47.258Z,480
2016-04-28T05:46:47.260Z,480
2016-04-28T05:47:47.279Z,485
2016-04-28T05:48:47.266Z,485
2016-04-28T05:49:47.269Z,460
2016-04-28T05:50:47.286Z,485
2016-04-28T05:51:47.275Z,510
2016-04-28T05:52:47.277Z,500
2016-04-28T05:53:47.295Z,495
2016-04-28T05:54:47.297Z,515
2016-04-28T05:55:47.300Z,515
2016-04-28T05:56:47.850Z,535
2016-04-28T05:57:47.321Z,545
2016-04-28T05:58:47.308Z,550
2016-04-28T05:59:47.327Z,550
2016-04-28T06:00:47.335Z,555
2016-04-28T06:01:47.379Z,545
2016-04-28T06:02:47.422Z,565
2016-04-28T06:03:47.481Z,585
2016-04-28T06:04:47.509Z,565
2016-04-28T06:05:47.548Z,590
2016-04-28T06:06:47.409Z,595
2016-04-28T06:07:47.583Z,615
2016-04-28T06:08:47.601Z,620
2016-04-28T06:09:47.633Z,595
2016-04-28T06:10:47.681Z,605
2016-04-28T06:11:47.985Z,595
2016-04-28T06:12:48.305Z,615
2016-04-28T06:13:47.672Z,625
2016-04-28T06:14:47.696Z,600
2016-04-28T06:15:47.702Z,640
2016-04-28T06:16:47.707Z,640
2016-04-28T06:17:47.711Z,615
2016-04-28T06:18:47.716Z,625
2016-04-28T06:19:47.737Z,630
2016-04-28T06:20:47.741Z,650
2016-04-28T06:21:47.761Z,660
2016-04-28T06:22:47.764Z,670
2016-04-28T06:23:47.782Z,670
2016-04-28T06:24:47.786Z,680
2016-04-28T06:25:47.790Z,685
2016-04-28T06:26:47.511Z,680
2016-04-28T06:27:47.734Z,705
2016-04-28T06:28:47.798Z,725
2016-04-28T06:29:47.849Z,715
2016-04-28T06:30:47.821Z,695
2016-04-28T06:31:47.823Z,700
2016-04-28T06:32:47.827Z,745
2016-04-28T06:33:47.844Z,745
2016-04-28T06:34:47.847Z,760
2016-04-28T06:35:47.850Z,790
2016-04-28T06:36:47.852Z,750
2016-04-28T06:37:47.870Z,765
2016-04-28T06:38:47.873Z,770
2016-04-28T06:39:47.892Z,765
2016-04-28T06:40:47.879Z,780
2016-04-28T06:41:47.897Z,785
2016-04-28T06:42:47.900Z,805
2016-04-28T06:43:47.934Z,785
2016-04-28T06:44:47.936Z,770
2016-04-28T06:45:47.939Z,785
2016-04-28T06:46:47.926Z,600
2016-04-28T06:47:47.211Z,580
2016-04-28T06:48:47.978Z,835
2016-04-28T06:49:47.981Z,860
2016-04-28T06:50:47.968Z,890
2016-04-28T06:51:47.253Z,850
2016-04-28T06:52:47.974Z,885
2016-04-28T06:53:48.008Z,855
2016-04-28T06:54:48.010Z,795
2016-04-28T06:55:47.997Z,880
2016-04-28T06:56:48.578Z,915
2016-04-28T06:57:48.783Z,950
2016-04-28T06:58:48.036Z,960
2016-04-28T06:59:48.070Z,965
2016-04-28T07:00:48.057Z,945
2016-04-28T07:01:48.077Z,915
2016-04-28T07:02:48.094Z,920
2016-04-28T07:03:48.081Z,940
2016-04-28T07:04:48.085Z,930
2016-04-28T07:05:48.087Z,965
2016-04-28T07:06:48.104Z,935
2016-04-28T07:07:48.092Z,915
2016-04-28T07:08:48.126Z,940
2016-04-28T07:09:48.144Z,940
2016-04-28T07:10:48.148Z,925
2016-04-28T07:11:51.962Z,880
2016-04-28T07:12:48.918Z,905
2016-04-28T07:13:48.156Z,705
2016-04-28T07:14:48.158Z,990
2016-04-28T07:15:48.176Z,930
2016-04-28T07:16:48.178Z,945
2016-04-28T07:17:48.197Z,965
2016-04-28T07:18:48.247Z,980
2016-04-28T07:19:48.233Z,955
2016-04-28T07:20:48.220Z,975
2016-04-28T07:21:48.255Z,1020
2016-04-28T07:22:48.259Z,995
2016-04-28T07:23:48.262Z,995
2016-04-28T07:24:48.264Z,1085
2016-04-28T07:25:48.267Z,1075
2016-04-28T07:26:51.738Z,1085
2016-04-28T07:27:49.725Z,1130
2016-04-28T07:28:48.305Z,1115
2016-04-28T07:29:48.308Z,1080
2016-04-28T07:30:48.311Z,1095
2016-04-28T07:31:48.345Z,1120
2016-04-28T07:32:48.364Z,1120
2016-04-28T07:33:48.336Z,1090
2016-04-28T07:34:48.353Z,1080
2016-04-28T07:35:48.372Z,1035
2016-04-28T07:36:48.374Z,1085
2016-04-28T07:37:48.392Z,1135
2016-04-28T07:38:48.394Z,1180
2016-04-28T07:39:48.413Z,1160
2016-04-28T07:40:48.416Z,1085
2016-04-28T07:41:48.450Z,1085
2016-04-28T07:42:48.437Z,1085
2016-04-28T07:43:48.440Z,1150
2016-04-28T07:44:48.505Z,1170
2016-04-28T07:45:48.461Z,1105
2016-04-28T07:46:48.464Z,1085
2016-04-28T07:47:48.482Z,1135
2016-04-28T07:48:48.328Z,1155
2016-04-28T07:49:48.518Z,1125
2016-04-28T07:50:48.506Z,1110
2016-04-28T07:51:48.508Z,1130
2016-04-28T07:52:48.526Z,1100
2016-04-28T07:53:48.545Z,995
2016-04-28T07:54:48.563Z,785
2016-04-28T07:55:49.129Z,1105
2016-04-28T07:56:50.413Z,1140
2016-04-28T07:57:48.978Z,1095
2016-04-28T07:58:50.934Z,1135
2016-04-28T07:59:48.592Z,760
2016-04-28T08:00:48.595Z,645
2016-04-28T08:01:48.645Z,695
2016-04-28T08:02:48.616Z,840
2016-04-28T08:03:48.650Z,1215
2016-04-28T08:04:48.652Z,1150
2016-04-28T08:05:48.702Z,1195
2016-04-28T08:06:48.595Z,1205
2016-04-28T08:07:48.969Z,1095
2016-04-28T08:08:48.675Z,1085
2016-04-28T08:09:48.662Z,1040
2016-04-28T08:10:48.681Z,1035
2016-04-28T08:11:49.542Z,910
2016-04-28T08:12:51.357Z,825
2016-04-28T08:13:50.000Z,775
2016-04-28T08:14:48.707Z,800
2016-04-28T08:15:48.725Z,865
2016-04-28T08:16:48.728Z,1020
2016-04-28T08:17:48.746Z,1125
2016-04-28T08:18:48.765Z,780
2016-04-28T08:19:48.767Z,605
2016-04-28T08:20:48.800Z,585
2016-04-28T08:21:48.788Z,590
2016-04-28T08:22:48.791Z,565
2016-04-28T08:23:48.653Z,600
2016-04-28T08:24:48.811Z,680
2016-04-28T08:25:48.830Z,730
2016-04-28T08:26:49.114Z,715
2016-04-28T08:27:48.836Z,685
2016-04-28T08:28:48.542Z,770
2016-04-28T08:29:48.872Z,840
2016-04-28T08:30:48.860Z,790
2016-04-28T08:31:48.877Z,770
2016-04-28T08:32:48.911Z,800
2016-04-28T08:33:48.883Z,795
2016-04-28T08:34:48.901Z,780
2016-04-28T08:35:48.919Z,835
2016-04-28T08:36:48.922Z,860
2016-04-28T08:37:48.924Z,895
2016-04-28T08:38:48.927Z,860
2016-04-28T08:39:48.961Z,610
2016-04-28T08:40:48.949Z,305
2016-04-28T08:41:48.968Z,190
2016-04-28T08:42:48.970Z,185
2016-04-28T08:43:48.988Z,180
2016-04-28T08:44:48.990Z,180
2016-04-28T08:45:48.853Z,175
2016-04-28T08:46:48.996Z,175
2016-04-28T08:47:49.030Z,170
2016-04-28T08:48:49.033Z,170
2016-04-28T08:49:49.036Z,165
2016-04-28T08:50:49.070Z,165
2016-04-28T08:51:49.056Z,160
2016-04-28T08:52:48.919Z,160
2016-04-28T08:53:49.061Z,160
2016-04-28T08:54:49.064Z,160
2016-04-28T08:55:49.067Z,155
2016-04-28T08:56:49.711Z,155
2016-04-28T08:57:51.416Z,155
2016-04-28T08:58:48.935Z,155
2016-04-28T08:59:49.124Z,155
2016-04-28T09:00:49.111Z,150
2016-04-28T09:01:49.114Z,150
2016-04-28T09:02:49.133Z,150
2016-04-28T09:03:49.120Z,145
2016-04-28T09:04:49.138Z,145
2016-04-28T09:05:51.125Z,145
2016-04-28T09:06:49.160Z,145
2016-04-28T09:07:49.162Z,140
2016-04-28T09:08:49.180Z,140
2016-04-28T09:09:49.182Z,135
2016-04-28T09:10:49.201Z,135
2016-04-28T09:11:49.220Z,135
2016-04-28T09:12:50.879Z,130
2016-04-28T09:13:49.210Z,130
2016-04-28T09:14:49.212Z,130
2016-04-28T09:15:49.246Z,130
2016-04-28T09:16:49.217Z,130
2016-04-28T09:17:49.251Z,130
2016-04-28T09:18:49.239Z,130
2016-04-28T09:19:49.241Z,130
2016-04-28T09:20:49.259Z,130
2016-04-28T09:21:49.340Z,130
2016-04-28T09:22:49.264Z,130
2016-04-28T09:23:49.298Z,130
2016-04-28T09:24:49.270Z,125
2016-04-28T09:25:49.273Z,125
2016-04-28T09:26:50.822Z,125
2016-04-28T09:27:49.669Z,130
2016-04-28T09:28:49.311Z,135
2016-04-28T09:29:49.330Z,140
2016-04-28T09:30:49.332Z,140
2016-04-28T09:31:49.351Z,140
2016-04-28T09:32:49.339Z,135
2016-04-28T09:33:49.341Z,130
2016-04-28T09:34:49.187Z,130
2016-04-28T09:35:49.393Z,130
2016-04-28T09:36:49.537Z,125
2016-04-28T09:37:49.383Z,125
2016-04-28T09:38:49.385Z,125
2016-04-28T09:39:49.373Z,130
2016-04-28T09:40:49.390Z,130
2016-04-28T09:41:49.581Z,130
2016-04-28T09:42:48.819Z,130
2016-04-28T09:43:49.399Z,130
2016-04-28T09:44:49.418Z,130
2016-04-28T09:45:49.404Z,130
2016-04-28T09:46:49.407Z,125
2016-04-28T09:47:49.425Z,125
2016-04-28T09:48:49.428Z,125
2016-04-28T09:49:49.415Z,125
2016-04-28T09:50:49.434Z,125
2016-04-28T09:51:49.436Z,125
2016-04-28T09:52:49.705Z,125
2016-04-28T09:53:49.473Z,120
2016-04-28T09:54:49.475Z,120
2016-04-28T09:55:49.463Z,120
2016-04-28T09:56:49.011Z,120
2016-04-28T09:57:51.343Z,125
2016-04-28T09:58:49.471Z,125
2016-04-28T09:59:49.536Z,125
2016-04-28T10:00:48.758Z,125
2016-04-28T10:01:49.510Z,130
2016-04-28T10:02:51.357Z,135
2016-04-28T10:03:48.781Z,135
2016-04-28T10:04:49.533Z,135
2016-04-28T10:05:49.365Z,125
2016-04-28T10:06:49.524Z,130
2016-04-28T10:07:51.636Z,135
2016-04-28T10:08:49.545Z,115
2016-04-28T10:09:49.532Z,135
2016-04-28T10:10:49.535Z,135
2016-04-28T10:11:50.913Z,120
2016-04-28T10:12:52.820Z,120
2016-04-28T10:13:49.557Z,120
2016-04-28T10:14:49.561Z,140
2016-04-28T10:15:49.579Z,145
2016-04-28T10:16:49.565Z,145
2016-04-28T10:17:51.897Z,140
2016-04-28T10:18:49.618Z,140
2016-04-28T10:19:49.589Z,145
2016-04-28T10:20:49.593Z,150
2016-04-28T10:21:49.611Z,155
2016-04-28T10:22:50.739Z,160
2016-04-28T10:23:48.881Z,170
2016-04-28T10:24:49.620Z,165
2016-04-28T10:25:49.606Z,160
2016-04-28T10:26:50.109Z,150
2016-04-28T10:27:53.314Z,150
2016-04-28T10:28:49.630Z,150
2016-04-28T10:29:49.648Z,160
2016-04-28T10:30:49.635Z,155
2016-04-28T10:31:49.653Z,160
2016-04-28T10:32:49.656Z,155
2016-04-28T10:33:49.658Z,170
2016-04-28T10:34:49.661Z,150
2016-04-28T10:35:49.680Z,170
2016-04-28T10:36:49.667Z,185
2016-04-28T10:37:49.670Z,200
2016-04-28T10:38:49.687Z,200
2016-04-28T10:39:49.674Z,215
2016-04-28T10:40:49.677Z,200
2016-04-28T10:41:50.915Z,210
2016-04-28T10:42:52.604Z,210
2016-04-28T10:43:49.685Z,200
2016-04-28T10:44:49.720Z,190
2016-04-28T10:45:49.723Z,175
2016-04-28T10:46:49.710Z,175
2016-04-28T10:47:49.728Z,175
2016-04-28T10:48:49.731Z,190
2016-04-28T10:49:49.734Z,205
2016-04-28T10:50:49.720Z,210
2016-04-28T10:51:49.739Z,205
2016-04-28T10:52:49.741Z,210
2016-04-28T10:53:49.744Z,220
2016-04-28T10:54:49.762Z,230
2016-04-28T10:55:49.765Z,225
2016-04-28T10:56:49.439Z,225
2016-04-28T10:57:52.645Z,225
2016-04-28T10:58:49.773Z,230
2016-04-28T10:59:49.760Z,230
2016-04-28T11:00:49.794Z,225
2016-04-28T11:01:49.797Z,230
2016-04-28T11:02:49.784Z,225
2016-04-28T11:03:49.802Z,205
2016-04-28T11:04:49.805Z,190
2016-04-28T11:05:49.807Z,180
2016-04-28T11:06:49.794Z,175
2016-04-28T11:07:49.813Z,170
2016-04-28T11:08:49.830Z,170
2016-04-28T11:09:49.802Z,155
2016-04-28T11:10:49.821Z,145
2016-04-28T11:11:49.964Z,135
2016-04-28T11:12:50.576Z,140
2016-04-28T11:13:49.844Z,145
2016-04-28T11:14:49.847Z,145
2016-04-28T11:15:49.865Z,140
2016-04-28T11:16:49.852Z,130
2016-04-28T11:17:49.918Z,125
2016-04-28T11:18:49.873Z,120
2016-04-28T11:19:49.892Z,120
2016-04-28T11:20:49.872Z,135
2016-04-28T11:21:49.876Z,135
2016-04-28T11:22:49.879Z,135
2016-04-28T11:23:49.881Z,140
2016-04-28T11:24:49.900Z,130
2016-04-28T11:25:49.917Z,140
2016-04-28T11:26:49.905Z,120
2016-04-28T11:27:49.658Z,115
2016-04-28T11:28:49.910Z,115
2016-04-28T11:29:49.897Z,130
2016-04-28T11:30:49.915Z,130
2016-04-28T11:31:49.919Z,145
2016-04-28T11:32:49.937Z,160
2016-04-28T11:33:49.924Z,165
2016-04-28T11:34:49.926Z,175
2016-04-28T11:35:49.944Z,180
2016-04-28T11:36:49.931Z,175
2016-04-28T11:37:49.934Z,165
2016-04-28T11:38:49.952Z,175
2016-04-28T11:39:49.940Z,175
2016-04-28T11:40:49.958Z,175
2016-04-28T11:41:49.976Z,175
2016-04-28T11:42:49.963Z,175
2016-04-28T11:43:49.963Z,170
2016-04-28T11:44:49.982Z,170
2016-04-28T11:45:49.985Z,170
2016-04-28T11:46:49.987Z,175
2016-04-28T11:47:49.990Z,175
2016-04-28T11:48:50.009Z,175
2016-04-28T11:49:50.011Z,175
2016-04-28T11:50:50.014Z,170
2016-04-28T11:51:50.001Z,175
2016-04-28T11:52:50.004Z,180
2016-04-28T11:53:50.006Z,175
2016-04-28T11:54:50.008Z,180
2016-04-28T11:55:50.011Z,165
2016-04-28T11:56:50.155Z,170
2016-04-28T11:57:49.783Z,165
2016-04-28T11:58:50.036Z,170
2016-04-28T11:59:49.897Z,170
2016-04-28T12:00:50.041Z,180
2016-04-28T12:01:50.059Z,190
2016-04-28T12:02:50.061Z,170
2016-04-28T12:03:50.049Z,165
2016-04-28T12:04:50.066Z,165
2016-04-28T12:05:50.163Z,160
2016-04-28T12:06:50.072Z,160
2016-04-28T12:07:50.075Z,155
2016-04-28T12:08:50.109Z,140
2016-04-28T12:09:50.080Z,130
2016-04-28T12:10:50.082Z,130
2016-04-28T12:11:50.101Z,135
2016-04-28T12:12:50.135Z,135
2016-04-28T12:13:50.123Z,140
2016-04-28T12:14:50.109Z,150
2016-04-28T12:15:50.128Z,165
2016-04-28T12:16:50.131Z,170
2016-04-28T12:17:50.118Z,175
2016-04-28T12:18:50.120Z,175
2016-04-28T12:19:50.139Z,175
2016-04-28T12:20:50.142Z,175
2016-04-28T12:21:50.129Z,180
2016-04-28T12:22:50.147Z,180
2016-04-28T12:23:50.150Z,165
2016-04-28T12:24:50.136Z,160
2016-04-28T12:25:50.155Z,155
2016-04-28T12:26:50.172Z,155
2016-04-28T12:27:50.019Z,165
2016-04-28T12:28:50.178Z,175
2016-04-28T12:29:50.181Z,175
2016-04-28T12:30:50.184Z,165
2016-04-28T12:31:50.186Z,150
2016-04-28T12:32:50.174Z,140
2016-04-28T12:33:50.208Z,145
2016-04-28T12:34:50.195Z,145
2016-04-28T12:35:50.196Z,145
2016-04-28T12:36:50.262Z,145
2016-04-28T12:37:50.202Z,135
2016-04-28T12:38:50.221Z,130
2016-04-28T12:39:50.208Z,120
2016-04-28T12:40:50.289Z,115
2016-04-28T12:41:50.229Z,110
2016-04-28T12:42:50.107Z,105
2016-04-28T12:43:50.235Z,100
2016-04-28T12:44:50.253Z,95
2016-04-28T12:45:50.223Z,95
2016-04-28T12:46:50.398Z,90
2016-04-28T12:47:50.260Z,90
2016-04-28T12:48:50.263Z,90
2016-04-28T12:49:50.344Z,90
2016-04-28T12:50:50.253Z,85
2016-04-28T12:51:50.256Z,85
2016-04-28T12:52:50.274Z,85
2016-04-28T12:53:50.261Z,85
2016-04-28T12:54:50.358Z,85
2016-04-28T12:55:50.298Z,85
2016-04-28T12:56:50.284Z,80
2016-04-28T12:57:50.600Z,80
2016-04-28T12:58:50.289Z,80
2016-04-28T12:59:50.292Z,80
2016-04-28T13:00:50.327Z,80
2016-04-28T13:01:50.298Z,80
2016-04-28T13:02:50.317Z,85
2016-04-28T13:03:50.303Z,85
2016-04-28T13:04:50.400Z,85
2016-04-28T13:05:50.325Z,85
2016-04-28T13:06:50.311Z,90
2016-04-28T13:07:50.346Z,90
2016-04-28T13:08:50.333Z,90
2016-04-28T13:09:50.320Z,90
2016-04-28T13:10:50.432Z,90
2016-04-28T13:11:50.341Z,90
2016-04-28T13:12:51.407Z,90
2016-04-28T13:13:50.440Z,90
2016-04-28T13:14:50.349Z,90
2016-04-28T13:15:50.335Z,90
2016-04-28T13:16:50.463Z,90
2016-04-28T13:17:50.388Z,80
2016-04-28T13:18:50.423Z,90
2016-04-28T13:19:50.362Z,90
2016-04-28T13:20:50.381Z,90
2016-04-28T13:21:50.383Z,90
2016-04-28T13:22:50.449Z,90
2016-04-28T13:23:50.389Z,90
2016-04-28T13:24:50.392Z,95
2016-04-28T13:25:50.378Z,95
2016-04-28T13:26:50.475Z,105
2016-04-28T13:27:51.197Z,120
2016-04-28T13:28:50.417Z,130
2016-04-28T13:29:50.390Z,135
2016-04-28T13:30:50.408Z,140
2016-04-28T13:31:50.426Z,140
2016-04-28T13:32:50.413Z,130
2016-04-28T13:33:50.416Z,120
2016-04-28T13:34:50.449Z,120
2016-04-28T13:35:50.422Z,130
2016-04-28T13:36:50.424Z,135
2016-04-28T13:37:50.427Z,135
2016-04-28T13:38:50.444Z,135
2016-04-28T13:39:50.432Z,130
2016-04-28T13:40:49.700Z,130
2016-04-28T13:41:50.453Z,130
2016-04-28T13:42:50.205Z,140
2016-04-28T13:43:50.521Z,135
2016-04-28T13:44:50.445Z,135
2016-04-28T13:45:50.463Z,130
2016-04-28T13:46:50.466Z,125
2016-04-28T13:47:50.547Z,120
2016-04-28T13:48:50.471Z,120
2016-04-28T13:49:50.474Z,120
2016-04-28T13:50:50.461Z,115
2016-04-28T13:51:50.479Z,120
2016-04-28T13:52:50.467Z,125
2016-04-28T13:53:50.484Z,130
2016-04-28T13:54:50.488Z,140
2016-04-28T13:55:50.490Z,145
2016-04-28T13:56:50.493Z,150
2016-04-28T13:57:51.448Z,145
2016-04-28T13:58:50.484Z,145
2016-04-28T13:59:50.486Z,140
2016-04-28T14:00:50.489Z,135
2016-04-28T14:01:50.523Z,140
2016-04-28T14:02:50.540Z,135
2016-04-28T14:03:50.527Z,145
2016-04-28T14:04:50.514Z,145
2016-04-28T14:05:50.533Z,140